sensor_id;sensor_type;location;lat;lon;timestamp;pressure;altitude;pressure_sealevel;temperature;humidity
61324;BME280;47203;48.428;11.974;2022-07-22T00:02:06;97161.19;;;23.05;52.49
61324;BME280;47203;48.428;11.974;2022-07-22T00:04:11;97157.72;;;23.05;52.61
61324;BME280;47203;48.428;11.974;2022-07-22T00:06:17;97166.88;;;23.04;52.25
61324;BME280;47203;48.428;11.974;2022-07-22T00:08:22;97162.97;;;23.01;52.51
61324;BME280;47203;48.428;11.974;2022-07-22T00:10:30;97155.59;;;22.98;52.65
61324;BME280;47203;48.428;11.974;2022-07-22T00:12:36;97155.16;;;22.96;52.42
61324;BME280;47203;48.428;11.974;2022-07-22T00:14:41;97153.47;;;22.91;52.68
61324;BME280;47203;48.428;11.974;2022-07-22T00:16:47;97151.75;;;22.87;52.61
61324;BME280;47203;48.428;11.974;2022-07-22T00:18:52;97147.88;;;22.84;52.75
61324;BME280;47203;48.428;11.974;2022-07-22T00:20:58;97148.53;;;22.81;52.49
61324;BME280;47203;48.428;11.974;2022-07-22T00:23:03;97146.50;;;22.78;52.86
61324;BME280;47203;48.428;11.974;2022-07-22T00:25:09;97138.34;;;22.74;52.86
61324;BME280;47203;48.428;11.974;2022-07-22T00:27:18;97145.81;;;22.69;52.90
61324;BME280;47203;48.428;11.974;2022-07-22T00:29:24;97133.84;;;22.66;52.86
61324;BME280;47203;48.428;11.974;2022-07-22T00:31:29;97141.91;;;22.66;52.98
61324;BME280;47203;48.428;11.974;2022-07-22T00:33:34;97134.50;;;22.63;52.84
61324;BME280;47203;48.428;11.974;2022-07-22T00:35:40;97134.84;;;22.61;53.29
61324;BME280;47203;48.428;11.974;2022-07-22T00:37:45;97136.75;;;22.61;52.85
61324;BME280;47203;48.428;11.974;2022-07-22T00:39:50;97126.69;;;22.58;53.32
61324;BME280;47203;48.428;11.974;2022-07-22T00:41:56;97140.44;;;22.56;53.31
61324;BME280;47203;48.428;11.974;2022-07-22T00:44:08;97131.50;;;22.52;53.50
61324;BME280;47203;48.428;11.974;2022-07-22T00:46:14;97136.19;;;22.55;53.18
61324;BME280;47203;48.428;11.974;2022-07-22T00:48:19;97131.16;;;22.54;53.11
61324;BME280;47203;48.428;11.974;2022-07-22T00:50:25;97136.84;;;22.52;53.37
61324;BME280;47203;48.428;11.974;2022-07-22T00:52:31;97131.81;;;22.51;53.36
61324;BME280;47203;48.428;11.974;2022-07-22T00:54:37;97132.94;;;22.49;53.66
61324;BME280;47203;48.428;11.974;2022-07-22T00:56:43;97142.88;;;22.49;53.17
61324;BME280;47203;48.428;11.974;2022-07-22T00:58:51;97130.13;;;22.46;53.54
61324;BME280;47203;48.428;11.974;2022-07-22T01:00:59;97141.19;;;22.44;53.19
61324;BME280;47203;48.428;11.974;2022-07-22T01:03:05;97140.72;;;22.42;53.14
61324;BME280;47203;48.428;11.974;2022-07-22T01:05:10;97139.16;;;22.41;53.54
61324;BME280;47203;48.428;11.974;2022-07-22T01:07:16;97137.94;;;22.39;53.37
61324;BME280;47203;48.428;11.974;2022-07-22T01:09:21;97138.94;;;22.34;53.63
61324;BME280;47203;48.428;11.974;2022-07-22T01:11:27;97134.50;;;22.29;53.13
61324;BME280;47203;48.428;11.974;2022-07-22T01:13:32;97137.09;;;22.26;53.31
61324;BME280;47203;48.428;11.974;2022-07-22T01:15:38;97136.63;;;22.24;53.41
61324;BME280;47203;48.428;11.974;2022-07-22T01:17:46;97136.06;;;22.18;53.24
61324;BME280;47203;48.428;11.974;2022-07-22T01:19:52;97136.84;;;22.19;53.38
61324;BME280;47203;48.428;11.974;2022-07-22T01:22:00;97135.91;;;22.14;53.53
61324;BME280;47203;48.428;11.974;2022-07-22T01:24:07;97137.69;;;22.10;53.66
61324;BME280;47203;48.428;11.974;2022-07-22T01:26:12;97139.44;;;22.06;53.29
61324;BME280;47203;48.428;11.974;2022-07-22T01:28:18;97142.47;;;22.05;53.49
61324;BME280;47203;48.428;11.974;2022-07-22T01:30:23;97140.44;;;22.02;53.52
61324;BME280;47203;48.428;11.974;2022-07-22T01:32:29;97139.53;;;21.97;53.76
61324;BME280;47203;48.428;11.974;2022-07-22T01:34:34;97134.81;;;21.94;53.78
61324;BME280;47203;48.428;11.974;2022-07-22T01:36:40;97137.38;;;21.91;53.79
61324;BME280;47203;48.428;11.974;2022-07-22T01:38:47;97134.56;;;21.87;53.77
61324;BME280;47203;48.428;11.974;2022-07-22T01:40:53;97134.88;;;21.86;53.74
61324;BME280;47203;48.428;11.974;2022-07-22T01:42:59;97131.31;;;21.82;53.91
61324;BME280;47203;48.428;11.974;2022-07-22T01:45:05;97134.63;;;21.78;53.61
61324;BME280;47203;48.428;11.974;2022-07-22T01:47:11;97125.81;;;21.78;53.97
61324;BME280;47203;48.428;11.974;2022-07-22T01:49:16;97129.16;;;21.75;53.76
61324;BME280;47203;48.428;11.974;2022-07-22T01:51:22;97131.38;;;21.73;53.92
61324;BME280;47203;48.428;11.974;2022-07-22T01:53:27;97123.69;;;21.71;53.49
61324;BME280;47203;48.428;11.974;2022-07-22T01:55:37;97133.16;;;21.69;53.61
61324;BME280;47203;48.428;11.974;2022-07-22T01:57:42;97133.91;;;21.69;54.06
61324;BME280;47203;48.428;11.974;2022-07-22T01:59:59;97123.09;;;21.66;54.16
61324;BME280;47203;48.428;11.974;2022-07-22T02:02:05;97126.88;;;21.65;53.98
61324;BME280;47203;48.428;11.974;2022-07-22T02:04:10;97119.94;;;21.64;53.85
61324;BME280;47203;48.428;11.974;2022-07-22T02:06:16;97121.84;;;21.63;54.28
61324;BME280;47203;48.428;11.974;2022-07-22T02:08:22;97118.38;;;21.63;54.52
61324;BME280;47203;48.428;11.974;2022-07-22T02:10:51;97120.91;;;21.59;54.46
61324;BME280;47203;48.428;11.974;2022-07-22T02:12:58;97121.38;;;21.61;54.45
61324;BME280;47203;48.428;11.974;2022-07-22T02:15:06;97118.25;;;21.59;54.20
61324;BME280;47203;48.428;11.974;2022-07-22T02:17:13;97116.34;;;21.59;54.14
61324;BME280;47203;48.428;11.974;2022-07-22T02:19:19;97122.50;;;21.60;54.45
61324;BME280;47203;48.428;11.974;2022-07-22T02:21:25;97126.28;;;21.59;54.32
61324;BME280;47203;48.428;11.974;2022-07-22T02:23:34;97122.34;;;21.56;53.96
61324;BME280;47203;48.428;11.974;2022-07-22T02:25:41;97126.16;;;21.55;54.37
61324;BME280;47203;48.428;11.974;2022-07-22T02:27:49;97123.81;;;21.54;54.17
61324;BME280;47203;48.428;11.974;2022-07-22T02:29:54;97116.22;;;21.56;53.84
61324;BME280;47203;48.428;11.974;2022-07-22T02:31:59;97119.22;;;21.54;54.00
61324;BME280;47203;48.428;11.974;2022-07-22T02:34:05;97121.91;;;21.54;54.29
61324;BME280;47203;48.428;11.974;2022-07-22T02:36:11;97123.00;;;21.53;54.09
61324;BME280;47203;48.428;11.974;2022-07-22T02:38:18;97118.75;;;21.52;54.41
61324;BME280;47203;48.428;11.974;2022-07-22T02:40:23;97121.44;;;21.52;54.00
61324;BME280;47203;48.428;11.974;2022-07-22T02:42:29;97120.19;;;21.50;54.51
61324;BME280;47203;48.428;11.974;2022-07-22T02:44:37;97124.28;;;21.47;54.42
61324;BME280;47203;48.428;11.974;2022-07-22T02:46:42;97126.97;;;21.47;53.89
61324;BME280;47203;48.428;11.974;2022-07-22T02:48:57;97124.94;;;21.44;54.31
61324;BME280;47203;48.428;11.974;2022-07-22T02:51:05;97123.69;;;21.41;54.04
61324;BME280;47203;48.428;11.974;2022-07-22T02:53:10;97122.44;;;21.39;54.14
61324;BME280;47203;48.428;11.974;2022-07-22T02:55:16;97124.97;;;21.35;53.76
61324;BME280;47203;48.428;11.974;2022-07-22T02:57:23;97126.09;;;21.34;54.03
61324;BME280;47203;48.428;11.974;2022-07-22T02:59:29;97131.31;;;21.31;54.31
61324;BME280;47203;48.428;11.974;2022-07-22T03:01:37;97138.41;;;21.26;54.04
61324;BME280;47203;48.428;11.974;2022-07-22T03:03:42;97133.41;;;21.25;54.09
61324;BME280;47203;48.428;11.974;2022-07-22T03:05:48;97128.69;;;21.22;54.23
61324;BME280;47203;48.428;11.974;2022-07-22T03:07:58;97132.47;;;21.21;53.86
61324;BME280;47203;48.428;11.974;2022-07-22T03:10:05;97131.09;;;21.15;53.77
61324;BME280;47203;48.428;11.974;2022-07-22T03:12:11;97130.59;;;21.13;54.31
61324;BME280;47203;48.428;11.974;2022-07-22T03:14:17;97129.38;;;21.10;54.26
61324;BME280;47203;48.428;11.974;2022-07-22T03:16:24;97127.66;;;21.05;54.47
61324;BME280;47203;48.428;11.974;2022-07-22T03:18:34;97130.53;;;21.00;54.31
61324;BME280;47203;48.428;11.974;2022-07-22T03:20:39;97132.44;;;21.00;54.46
61324;BME280;47203;48.428;11.974;2022-07-22T03:22:45;97138.06;;;20.98;54.47
61324;BME280;47203;48.428;11.974;2022-07-22T03:24:50;97139.53;;;20.96;54.48
61324;BME280;47203;48.428;11.974;2022-07-22T03:26:56;97134.50;;;20.94;54.12
61324;BME280;47203;48.428;11.974;2022-07-22T03:29:04;97131.66;;;20.90;54.44
61324;BME280;47203;48.428;11.974;2022-07-22T03:31:10;97137.34;;;20.89;54.30
61324;BME280;47203;48.428;11.974;2022-07-22T03:33:15;97132.31;;;20.87;54.53
61324;BME280;47203;48.428;11.974;2022-07-22T03:35:23;97137.97;;;20.86;54.35
61324;BME280;47203;48.428;11.974;2022-07-22T03:37:30;97131.53;;;20.87;54.53
61324;BME280;47203;48.428;11.974;2022-07-22T03:39:35;97122.69;;;20.86;54.46
61324;BME280;47203;48.428;11.974;2022-07-22T03:41:41;97136.41;;;20.85;54.36
61324;BME280;47203;48.428;11.974;2022-07-22T03:43:46;97129.00;;;20.82;54.76
61324;BME280;47203;48.428;11.974;2022-07-22T03:45:53;97131.25;;;20.80;54.42
61324;BME280;47203;48.428;11.974;2022-07-22T03:47:58;97137.69;;;20.79;54.69
61324;BME280;47203;48.428;11.974;2022-07-22T03:50:10;97132.66;;;20.77;54.48
61324;BME280;47203;48.428;11.974;2022-07-22T03:52:18;97129.03;;;20.73;54.53
61324;BME280;47203;48.428;11.974;2022-07-22T03:54:23;97127.63;;;20.75;54.57
61324;BME280;47203;48.428;11.974;2022-07-22T03:56:29;97128.41;;;20.76;54.22
61324;BME280;47203;48.428;11.974;2022-07-22T03:58:35;97125.72;;;20.76;54.18
61324;BME280;47203;48.428;11.974;2022-07-22T04:00:41;97129.66;;;20.79;54.68
61324;BME280;47203;48.428;11.974;2022-07-22T04:02:47;97133.09;;;20.79;54.74
61324;BME280;47203;48.428;11.974;2022-07-22T04:05:07;97132.34;;;20.79;54.79
61324;BME280;47203;48.428;11.974;2022-07-22T04:07:12;97127.75;;;20.79;54.38
61324;BME280;47203;48.428;11.974;2022-07-22T04:09:20;97132.00;;;20.80;54.70
61324;BME280;47203;48.428;11.974;2022-07-22T04:11:26;97132.63;;;20.86;54.51
61324;BME280;47203;48.428;11.974;2022-07-22T04:13:31;97131.97;;;20.89;54.80
61324;BME280;47203;48.428;11.974;2022-07-22T04:15:37;97129.78;;;20.91;54.81
61324;BME280;47203;48.428;11.974;2022-07-22T04:17:42;97131.81;;;20.94;54.88
61324;BME280;47203;48.428;11.974;2022-07-22T04:19:48;97124.25;;;20.96;54.77
61324;BME280;47203;48.428;11.974;2022-07-22T04:21:59;97126.59;;;20.98;54.94
61324;BME280;47203;48.428;11.974;2022-07-22T04:24:06;97127.06;;;21.00;54.70
61324;BME280;47203;48.428;11.974;2022-07-22T04:26:15;97132.09;;;21.01;54.80
61324;BME280;47203;48.428;11.974;2022-07-22T04:28:20;97126.56;;;21.06;54.83
61324;BME280;47203;48.428;11.974;2022-07-22T04:30:26;97124.66;;;21.07;54.73
61324;BME280;47203;48.428;11.974;2022-07-22T04:32:32;97121.34;;;21.10;54.96
61324;BME280;47203;48.428;11.974;2022-07-22T04:34:38;97121.47;;;21.14;54.51
61324;BME280;47203;48.428;11.974;2022-07-22T04:36:44;97124.28;;;21.17;54.68
61324;BME280;47203;48.428;11.974;2022-07-22T04:38:49;97119.09;;;21.21;54.62
61324;BME280;47203;48.428;11.974;2022-07-22T04:40:56;97128.03;;;21.25;54.79
61324;BME280;47203;48.428;11.974;2022-07-22T04:43:04;97128.16;;;21.28;54.54
61324;BME280;47203;48.428;11.974;2022-07-22T04:45:09;97121.84;;;21.33;54.61
61324;BME280;47203;48.428;11.974;2022-07-22T04:47:15;97124.66;;;21.37;54.71
61324;BME280;47203;48.428;11.974;2022-07-22T04:49:22;97119.09;;;21.42;54.78
61324;BME280;47203;48.428;11.974;2022-07-22T04:51:31;97115.91;;;21.49;54.21
61324;BME280;47203;48.428;11.974;2022-07-22T04:53:39;97119.56;;;21.53;54.64
61324;BME280;47203;48.428;11.974;2022-07-22T04:55:54;97120.16;;;21.58;54.45
61324;BME280;47203;48.428;11.974;2022-07-22T04:58:02;97126.44;;;21.63;54.49
61324;BME280;47203;48.428;11.974;2022-07-22T05:00:10;97120.84;;;21.68;54.83
61324;BME280;47203;48.428;11.974;2022-07-22T05:02:25;97123.81;;;21.75;54.26
61324;BME280;47203;48.428;11.974;2022-07-22T05:04:31;97129.75;;;21.81;54.45
61324;BME280;47203;48.428;11.974;2022-07-22T05:06:38;97124.19;;;21.86;54.07
61324;BME280;47203;48.428;11.974;2022-07-22T05:08:45;97124.00;;;21.91;54.25
61324;BME280;47203;48.428;11.974;2022-07-22T05:10:51;97121.91;;;21.96;54.44
61324;BME280;47203;48.428;11.974;2022-07-22T05:12:57;97120.13;;;22.01;54.17
61324;BME280;47203;48.428;11.974;2022-07-22T05:15:06;97119.91;;;22.06;54.21
61324;BME280;47203;48.428;11.974;2022-07-22T05:17:12;97126.63;;;22.12;54.06
61324;BME280;47203;48.428;11.974;2022-07-22T05:19:33;97124.44;;;22.14;54.52
61324;BME280;47203;48.428;11.974;2022-07-22T05:21:41;97127.22;;;22.18;54.54
61324;BME280;47203;48.428;11.974;2022-07-22T05:23:46;97128.47;;;22.20;54.58
61324;BME280;47203;48.428;11.974;2022-07-22T05:25:52;97132.50;;;22.26;54.13
61324;BME280;47203;48.428;11.974;2022-07-22T05:27:57;97125.53;;;22.34;54.53
61324;BME280;47203;48.428;11.974;2022-07-22T05:30:12;97121.53;;;22.40;54.32
61324;BME280;47203;48.428;11.974;2022-07-22T05:32:25;97116.41;;;22.47;54.49
61324;BME280;47203;48.428;11.974;2022-07-22T05:34:34;97113.81;;;22.51;54.67
61324;BME280;47203;48.428;11.974;2022-07-22T05:36:40;97117.75;;;22.54;54.35
61324;BME280;47203;48.428;11.974;2022-07-22T05:38:47;97117.84;;;22.57;54.19
61324;BME280;47203;48.428;11.974;2022-07-22T05:40:52;97113.72;;;22.60;54.17
61324;BME280;47203;48.428;11.974;2022-07-22T05:42:58;97113.06;;;22.63;54.68
61324;BME280;47203;48.428;11.974;2022-07-22T05:45:05;97113.63;;;22.69;54.29
61324;BME280;47203;48.428;11.974;2022-07-22T05:47:14;97110.06;;;22.77;54.45
61324;BME280;47203;48.428;11.974;2022-07-22T05:49:20;97112.75;;;22.89;54.51
61324;BME280;47203;48.428;11.974;2022-07-22T05:51:32;97114.97;;;22.99;54.51
61324;BME280;47203;48.428;11.974;2022-07-22T05:53:39;97111.53;;;23.11;54.48
61324;BME280;47203;48.428;11.974;2022-07-22T05:55:45;97108.41;;;23.22;54.10
61324;BME280;47203;48.428;11.974;2022-07-22T05:57:50;97114.13;;;23.32;54.16
61324;BME280;47203;48.428;11.974;2022-07-22T05:59:55;97121.03;;;23.46;54.18
61324;BME280;47203;48.428;11.974;2022-07-22T06:02:01;97118.75;;;23.60;54.12
61324;BME280;47203;48.428;11.974;2022-07-22T06:04:35;97117.72;;;23.77;53.54
61324;BME280;47203;48.428;11.974;2022-07-22T06:06:41;97122.03;;;23.94;53.69
61324;BME280;47203;48.428;11.974;2022-07-22T06:08:46;97121.31;;;24.10;53.59
61324;BME280;47203;48.428;11.974;2022-07-22T06:10:57;97117.09;;;24.25;53.67
61324;BME280;47203;48.428;11.974;2022-07-22T06:13:04;97116.78;;;24.42;53.34
61324;BME280;47203;48.428;11.974;2022-07-22T06:15:10;97127.91;;;24.56;53.69
61324;BME280;47203;48.428;11.974;2022-07-22T06:17:15;97119.00;;;24.68;53.85
61324;BME280;47203;48.428;11.974;2022-07-22T06:19:20;97120.47;;;24.82;53.30
61324;BME280;47203;48.428;11.974;2022-07-22T06:21:29;97125.00;;;24.94;53.34
61324;BME280;47203;48.428;11.974;2022-07-22T06:23:36;97124.56;;;25.07;53.37
61324;BME280;47203;48.428;11.974;2022-07-22T06:25:43;97122.19;;;25.22;52.88
61324;BME280;47203;48.428;11.974;2022-07-22T06:28:03;97121.75;;;25.36;52.75
61324;BME280;47203;48.428;11.974;2022-07-22T06:30:11;97127.38;;;25.47;52.47
61324;BME280;47203;48.428;11.974;2022-07-22T06:32:16;97126.47;;;25.58;52.73
61324;BME280;47203;48.428;11.974;2022-07-22T06:34:24;97127.06;;;25.68;52.55
61324;BME280;47203;48.428;11.974;2022-07-22T06:36:42;97122.22;;;25.77;52.31
61324;BME280;47203;48.428;11.974;2022-07-22T06:38:47;97126.28;;;25.87;51.82
61324;BME280;47203;48.428;11.974;2022-07-22T06:40:55;97121.44;;;25.96;51.90
61324;BME280;47203;48.428;11.974;2022-07-22T06:43:18;97121.34;;;26.08;51.86
61324;BME280;47203;48.428;11.974;2022-07-22T06:45:41;97130.84;;;26.22;52.11
61324;BME280;47203;48.428;11.974;2022-07-22T06:47:52;97127.28;;;26.37;52.11
61324;BME280;47203;48.428;11.974;2022-07-22T06:49:58;97123.25;;;26.51;51.47
61324;BME280;47203;48.428;11.974;2022-07-22T06:52:07;97121.88;;;26.60;51.13
61324;BME280;47203;48.428;11.974;2022-07-22T06:54:12;97129.50;;;26.78;50.93
61324;BME280;47203;48.428;11.974;2022-07-22T06:56:18;97128.22;;;26.91;50.74
61324;BME280;47203;48.428;11.974;2022-07-22T06:58:23;97133.47;;;27.07;50.61
61324;BME280;47203;48.428;11.974;2022-07-22T07:00:29;97122.84;;;27.22;50.22
61324;BME280;47203;48.428;11.974;2022-07-22T07:02:53;97120.41;;;27.36;50.19
61324;BME280;47203;48.428;11.974;2022-07-22T07:05:19;97114.41;;;27.50;49.77
61324;BME280;47203;48.428;11.974;2022-07-22T07:07:31;97119.94;;;27.61;49.75
61324;BME280;47203;48.428;11.974;2022-07-22T07:09:38;97113.91;;;27.71;49.41
61324;BME280;47203;48.428;11.974;2022-07-22T07:11:53;97110.53;;;27.81;48.75
61324;BME280;47203;48.428;11.974;2022-07-22T07:14:17;97110.69;;;27.92;48.53
61324;BME280;47203;48.428;11.974;2022-07-22T07:16:22;97108.88;;;28.00;48.29
61324;BME280;47203;48.428;11.974;2022-07-22T07:18:28;97109.34;;;28.09;47.97
61324;BME280;47203;48.428;11.974;2022-07-22T07:20:33;97105.56;;;28.17;48.22
61324;BME280;47203;48.428;11.974;2022-07-22T07:22:44;97111.47;;;28.27;47.91
61324;BME280;47203;48.428;11.974;2022-07-22T07:24:49;97107.00;;;28.42;47.42
61324;BME280;47203;48.428;11.974;2022-07-22T07:26:55;97106.31;;;28.55;47.18
61324;BME280;47203;48.428;11.974;2022-07-22T07:29:00;97115.75;;;28.69;46.99
61324;BME280;47203;48.428;11.974;2022-07-22T07:31:08;97105.41;;;28.82;46.66
61324;BME280;47203;48.428;11.974;2022-07-22T07:33:14;97106.28;;;28.93;46.54
61324;BME280;47203;48.428;11.974;2022-07-22T07:35:20;97113.34;;;29.08;46.40
61324;BME280;47203;48.428;11.974;2022-07-22T07:37:32;97099.91;;;29.23;46.61
61324;BME280;47203;48.428;11.974;2022-07-22T07:39:40;97106.19;;;29.38;45.97
61324;BME280;47203;48.428;11.974;2022-07-22T07:41:46;97100.47;;;29.50;45.54
61324;BME280;47203;48.428;11.974;2022-07-22T07:43:57;97105.91;;;29.61;45.62
61324;BME280;47203;48.428;11.974;2022-07-22T07:46:02;97102.50;;;29.75;45.27
61324;BME280;47203;48.428;11.974;2022-07-22T07:48:09;97093.28;;;29.87;45.10
61324;BME280;47203;48.428;11.974;2022-07-22T07:50:14;97103.00;;;29.99;45.16
61324;BME280;47203;48.428;11.974;2022-07-22T07:52:20;97097.22;;;30.11;44.78
61324;BME280;47203;48.428;11.974;2022-07-22T07:54:25;97094.53;;;30.25;44.74
61324;BME280;47203;48.428;11.974;2022-07-22T07:56:40;97100.78;;;30.40;44.61
61324;BME280;47203;48.428;11.974;2022-07-22T07:58:46;97096.53;;;30.57;43.95
61324;BME280;47203;48.428;11.974;2022-07-22T08:01:11;97098.09;;;30.69;43.65
61324;BME280;47203;48.428;11.974;2022-07-22T08:03:18;97093.81;;;30.79;42.98
61324;BME280;47203;48.428;11.974;2022-07-22T08:05:24;97086.84;;;30.89;42.58
61324;BME280;47203;48.428;11.974;2022-07-22T08:07:31;97092.69;;;31.02;43.00
61324;BME280;47203;48.428;11.974;2022-07-22T08:09:36;97081.75;;;31.16;42.56
61324;BME280;47203;48.428;11.974;2022-07-22T08:11:53;97084.88;;;31.25;42.25
61324;BME280;47203;48.428;11.974;2022-07-22T08:14:12;97085.22;;;31.35;42.06
61324;BME280;47203;48.428;11.974;2022-07-22T08:16:54;97080.94;;;31.41;41.30
61324;BME280;47203;48.428;11.974;2022-07-22T08:18:59;97077.06;;;31.45;41.03
61324;BME280;47203;48.428;11.974;2022-07-22T08:21:06;97078.94;;;31.52;41.01
61324;BME280;47203;48.428;11.974;2022-07-22T08:23:24;97080.13;;;31.51;39.74
61324;BME280;47203;48.428;11.974;2022-07-22T08:25:29;97080.50;;;31.49;39.71
61324;BME280;47203;48.428;11.974;2022-07-22T08:27:37;97075.06;;;31.49;39.40
61324;BME280;47203;48.428;11.974;2022-07-22T08:29:43;97074.31;;;31.56;39.12
61324;BME280;47203;48.428;11.974;2022-07-22T08:31:49;97083.59;;;31.66;38.63
61324;BME280;47203;48.428;11.974;2022-07-22T08:33:55;97082.00;;;31.76;38.88
61324;BME280;47203;48.428;11.974;2022-07-22T08:36:02;97080.44;;;31.82;38.68
61324;BME280;47203;48.428;11.974;2022-07-22T08:38:08;97076.50;;;31.87;38.68
61324;BME280;47203;48.428;11.974;2022-07-22T08:40:16;97079.19;;;31.90;37.84
61324;BME280;47203;48.428;11.974;2022-07-22T08:42:23;97069.84;;;31.95;37.74
61324;BME280;47203;48.428;11.974;2022-07-22T08:44:33;97070.59;;;32.02;37.96
61324;BME280;47203;48.428;11.974;2022-07-22T08:46:43;97068.59;;;32.17;37.14
61324;BME280;47203;48.428;11.974;2022-07-22T08:48:54;97063.50;;;32.23;36.90
61324;BME280;47203;48.428;11.974;2022-07-22T08:51:21;97073.94;;;32.32;37.44
61324;BME280;47203;48.428;11.974;2022-07-22T08:53:35;97072.28;;;32.45;37.43
61324;BME280;47203;48.428;11.974;2022-07-22T08:55:48;97074.91;;;32.60;36.45
61324;BME280;47203;48.428;11.974;2022-07-22T08:57:53;97073.66;;;32.71;36.21
61324;BME280;47203;48.428;11.974;2022-07-22T09:00:08;97058.81;;;32.76;35.70
61324;BME280;47203;48.428;11.974;2022-07-22T09:02:14;97063.78;;;32.88;36.28
61324;BME280;47203;48.428;11.974;2022-07-22T09:04:20;97060.53;;;33.01;35.51
61324;BME280;47203;48.428;11.974;2022-07-22T09:06:28;97058.91;;;33.07;34.83
61324;BME280;47203;48.428;11.974;2022-07-22T09:08:51;97054.25;;;33.08;35.40
61324;BME280;47203;48.428;11.974;2022-07-22T09:11:32;97054.53;;;33.17;35.72
61324;BME280;47203;48.428;11.974;2022-07-22T09:13:52;97058.63;;;33.36;35.28
61324;BME280;47203;48.428;11.974;2022-07-22T09:16:38;97058.22;;;33.37;35.26
61324;BME280;47203;48.428;11.974;2022-07-22T09:19:03;97057.78;;;33.43;34.75
61324;BME280;47203;48.428;11.974;2022-07-22T09:21:34;97045.25;;;33.49;35.12
61324;BME280;47203;48.428;11.974;2022-07-22T09:23:55;97049.72;;;33.63;34.82
61324;BME280;47203;48.428;11.974;2022-07-22T09:26:01;97046.16;;;33.69;34.11
61324;BME280;47203;48.428;11.974;2022-07-22T09:28:24;97048.47;;;33.71;33.79
61324;BME280;47203;48.428;11.974;2022-07-22T09:30:52;97040.22;;;33.78;34.59
61324;BME280;47203;48.428;11.974;2022-07-22T09:33:03;97044.00;;;33.88;33.47
61324;BME280;47203;48.428;11.974;2022-07-22T09:35:14;97044.56;;;34.03;33.03
61324;BME280;47203;48.428;11.974;2022-07-22T09:37:26;97053.91;;;34.02;33.07
61324;BME280;47203;48.428;11.974;2022-07-22T09:39:33;97042.22;;;34.01;32.64
61324;BME280;47203;48.428;11.974;2022-07-22T09:41:57;97041.41;;;34.04;33.36
61324;BME280;47203;48.428;11.974;2022-07-22T09:44:22;97040.00;;;34.20;32.70
61324;BME280;47203;48.428;11.974;2022-07-22T09:46:36;97033.63;;;34.30;32.16
61324;BME280;47203;48.428;11.974;2022-07-22T09:48:59;97025.28;;;34.41;32.51
61324;BME280;47203;48.428;11.974;2022-07-22T09:51:09;97032.81;;;34.57;32.14
61324;BME280;47203;48.428;11.974;2022-07-22T09:53:37;97024.41;;;34.68;31.21
61324;BME280;47203;48.428;11.974;2022-07-22T09:55:45;97029.13;;;34.67;31.20
61324;BME280;47203;48.428;11.974;2022-07-22T09:57:53;97014.31;;;34.65;31.02
61324;BME280;47203;48.428;11.974;2022-07-22T09:59:59;97010.28;;;34.73;31.14
61324;BME280;47203;48.428;11.974;2022-07-22T10:02:21;97012.78;;;34.87;30.99
61324;BME280;47203;48.428;11.974;2022-07-22T10:04:35;97013.75;;;34.97;30.60
61324;BME280;47203;48.428;11.974;2022-07-22T10:06:47;97012.03;;;35.07;30.82
61324;BME280;47203;48.428;11.974;2022-07-22T10:08:56;97006.28;;;35.21;30.77
61324;BME280;47203;48.428;11.974;2022-07-22T10:11:12;97004.31;;;35.42;30.54
61324;BME280;47203;48.428;11.974;2022-07-22T10:13:19;97002.75;;;35.61;29.85
61324;BME280;47203;48.428;11.974;2022-07-22T10:15:27;97005.19;;;35.75;29.57
61324;BME280;47203;48.428;11.974;2022-07-22T10:17:39;97001.78;;;35.88;29.89
61324;BME280;47203;48.428;11.974;2022-07-22T10:19:48;96996.50;;;35.97;28.73
61324;BME280;47203;48.428;11.974;2022-07-22T10:21:54;96994.81;;;36.03;28.61
61324;BME280;47203;48.428;11.974;2022-07-22T10:24:11;96992.22;;;35.96;28.64
61324;BME280;47203;48.428;11.974;2022-07-22T10:26:47;96990.25;;;35.96;29.15
61324;BME280;47203;48.428;11.974;2022-07-22T10:28:52;96994.47;;;36.01;28.78
61324;BME280;47203;48.428;11.974;2022-07-22T10:31:19;96984.88;;;35.93;28.51
61324;BME280;47203;48.428;11.974;2022-07-22T10:33:30;96984.00;;;35.96;28.84
61324;BME280;47203;48.428;11.974;2022-07-22T10:35:55;96984.09;;;36.09;29.38
61324;BME280;47203;48.428;11.974;2022-07-22T10:38:07;96987.13;;;36.31;29.23
61324;BME280;47203;48.428;11.974;2022-07-22T10:40:15;96986.91;;;36.55;28.73
61324;BME280;47203;48.428;11.974;2022-07-22T10:45:04;96974.13;;;36.81;27.90
61324;BME280;47203;48.428;11.974;2022-07-22T10:47:12;96973.47;;;36.90;28.62
61324;BME280;47203;48.428;11.974;2022-07-22T10:49:20;96971.31;;;36.97;27.46
61324;BME280;47203;48.428;11.974;2022-07-22T10:51:29;96979.09;;;36.99;27.23
61324;BME280;47203;48.428;11.974;2022-07-22T10:53:47;96973.72;;;36.95;27.33
61324;BME280;47203;48.428;11.974;2022-07-22T10:56:02;96968.88;;;36.86;27.02
61324;BME280;47203;48.428;11.974;2022-07-22T10:58:41;96973.09;;;36.75;27.56
61324;BME280;47203;48.428;11.974;2022-07-22T11:00:48;96971.63;;;36.70;26.89
61324;BME280;47203;48.428;11.974;2022-07-22T11:02:53;96967.78;;;36.67;26.79
61324;BME280;47203;48.428;11.974;2022-07-22T11:04:59;96966.59;;;36.68;27.42
61324;BME280;47203;48.428;11.974;2022-07-22T11:07:07;96958.69;;;36.71;27.13
61324;BME280;47203;48.428;11.974;2022-07-22T11:09:14;96961.44;;;36.71;26.56
61324;BME280;47203;48.428;11.974;2022-07-22T11:11:36;96957.75;;;36.61;26.87
61324;BME280;47203;48.428;11.974;2022-07-22T11:13:45;96945.75;;;36.71;26.57
61324;BME280;47203;48.428;11.974;2022-07-22T11:15:50;96956.53;;;36.78;26.13
61324;BME280;47203;48.428;11.974;2022-07-22T11:17:57;96951.56;;;36.73;25.94
61324;BME280;47203;48.428;11.974;2022-07-22T11:20:05;96949.78;;;36.66;26.11